Spring Eagle — WDE8767 — position and weather

sailwx.info

Track history (hours):
 
Tides and Currents Weather Stations Pressure Air Temp Water Temp Dewpoint Dewpoint Depression Visibility Wind Speed Wind Dir Waves Ship Positions

Spring Eagle

Owner: M/V Spring Eagle, Galliano, LA. More information available from US FCC via Universal Licensing System and Coast Guard Vessel Documentation Center.

Last reported at 2017-Nov-16 16:49 UTC. Time now 2017-Nov-24 02:11 UTC.
Position N 29°34' W 090°28'.

Length 16 m; draft 2.5 m.

Type: Tug. MMSI: 367409340.

Date/timePositionNaut miles runAvg speedWind from/ knotsBaromVisibWave heightAir tempDewpointWater temp
2017-Nov-16 16:49N 29°34' W 090°28'2 7.8
2017-Nov-16 16:31N 29°34' W 090°31'3 5.8
2017-Nov-16 16:01N 29°34' W 090°34'3 6.8
2017-Nov-16 15:31N 29°35' W 090°38'3 6.4
2017-Nov-16 15:01N 29°37' W 090°41'2 3.9
2017-Nov-16 14:31N 29°35' W 090°43'1 1.9
2017-Nov-16 14:01N 29°34' W 090°43'1 1.5
2017-Nov-16 13:31N 29°35' W 090°43'0 0.2
2017-Nov-16 13:00N 29°35' W 090°43'2 4.3
2017-Nov-16 12:31N 29°36' W 090°41'4 7.3
2017-Nov-16 12:01N 29°35' W 090°37'3 7.0
2017-Nov-16 11:31N 29°34' W 090°33'4 0.2
2017-Nov-15 11:33N 29°36' W 090°29'0 4.7
2017-Nov-15 11:29N 29°36' W 090°29'  
2017-Nov-10 16:14N 29°34' W 090°33'2 7.7
2017-Nov-10 16:00N 29°34' W 090°35'3 7.0
2017-Nov-10 15:30N 29°35' W 090°39'3 6.6
2017-Nov-10 15:00N 29°37' W 090°42'3 5.9
2017-Nov-10 14:30N 29°34' W 090°43'0 0.3
2017-Nov-10 14:00N 29°34' W 090°43'1 0.0
2017-Nov-09 02:32N 29°33' W 090°42'0 0.0
2017-Nov-09 02:30N 29°33' W 090°42'1 3.0
2017-Nov-09 02:00N 29°34' W 090°43'3 5.1
2017-Nov-09 01:30N 29°37' W 090°42'1 1.5
2017-Nov-09 01:00N 29°37' W 090°42'3 5.3
2017-Nov-09 00:30N 29°36' W 090°39'3 5.1
2017-Nov-09 00:00N 29°35' W 090°36'0 0.0
2017-Nov-08 23:30N 29°35' W 090°36'0 0.0
2017-Nov-08 23:00N 29°35' W 090°36'1 2.6
2017-Nov-08 22:30N 29°34' W 090°35'3 5.1
2017-Nov-08 22:00N 29°34' W 090°32'4 0.9
2017-Nov-08 17:39N 29°33' W 090°27'1 5.5
2017-Nov-08 17:29N 29°33' W 090°28'3 5.5
2017-Nov-08 17:00N 29°34' W 090°31'3 5.3
2017-Nov-08 16:30N 29°34' W 090°34'3 5.3
2017-Nov-08 16:00N 29°35' W 090°37'2 4.8
2017-Nov-08 15:30N 29°36' W 090°40'2 4.7
2017-Nov-08 15:00N 29°36' W 090°43'2 4.8
2017-Nov-08 14:30N 29°34' W 090°43'0 0.0
2017-Nov-08 14:00N 29°34' W 090°43'1 2.4
2017-Nov-08 13:30N 29°33' W 090°42'0 0.0
2017-Nov-07 02:55N 29°33' W 090°42'1 2.5
2017-Nov-07 02:30N 29°34' W 090°43'2 4.2
2017-Nov-07 02:00N 29°33' W 090°45'2 4.9
2017-Nov-07 01:30N 29°32' W 090°48'4 5.6
2017-Nov-07 00:42N 29°32' W 090°53'1 5.7
2017-Nov-07 00:28N 29°33' W 090°54'  
Track history (hours):
 
Tides and Currents Weather Stations Pressure Air Temp Water Temp Dewpoint Dewpoint Depression Visibility Wind Speed Wind Dir Waves Ship Positions

Spring Eagle

Owner: M/V Spring Eagle, Galliano, LA. More information available from US FCC via Universal Licensing System and Coast Guard Vessel Documentation Center.

Last reported at 2017-Nov-16 16:49 UTC. Time now 2017-Nov-24 02:12 UTC.
Position N 29°34' W 090°28'.

Length 16 m; draft 2.5 m.

Type: Tug. MMSI: 367409340.

Date/timePositionNaut miles runAvg speedWind from/ knotsBaromVisibWave heightAir tempDewpointWater temp
2017-Nov-16 16:49N 29°34' W 090°28'2 7.8
2017-Nov-16 16:31N 29°34' W 090°31'3 5.8
2017-Nov-16 16:01N 29°34' W 090°34'3 6.8
2017-Nov-16 15:31N 29°35' W 090°38'3 6.4
2017-Nov-16 15:01N 29°37' W 090°41'2 3.9
2017-Nov-16 14:31N 29°35' W 090°43'1 1.9
2017-Nov-16 14:01N 29°34' W 090°43'1 1.5
2017-Nov-16 13:31N 29°35' W 090°43'0 0.2
2017-Nov-16 13:00N 29°35' W 090°43'2 4.3
2017-Nov-16 12:31N 29°36' W 090°41'4 7.3
2017-Nov-16 12:01N 29°35' W 090°37'3 7.0
2017-Nov-16 11:31N 29°34' W 090°33'4 0.2
2017-Nov-15 11:33N 29°36' W 090°29'0 4.7
2017-Nov-15 11:29N 29°36' W 090°29'  
2017-Nov-10 16:14N 29°34' W 090°33'2 7.7
2017-Nov-10 16:00N 29°34' W 090°35'3 7.0
2017-Nov-10 15:30N 29°35' W 090°39'3 6.6
2017-Nov-10 15:00N 29°37' W 090°42'3 5.9
2017-Nov-10 14:30N 29°34' W 090°43'0 0.3
2017-Nov-10 14:00N 29°34' W 090°43'1 0.0
2017-Nov-09 02:32N 29°33' W 090°42'0 0.0
2017-Nov-09 02:30N 29°33' W 090°42'1 3.0
2017-Nov-09 02:00N 29°34' W 090°43'3 5.1
2017-Nov-09 01:30N 29°37' W 090°42'1 1.5
2017-Nov-09 01:00N 29°37' W 090°42'3 5.3
2017-Nov-09 00:30N 29°36' W 090°39'3 5.1
2017-Nov-09 00:00N 29°35' W 090°36'0 0.0
2017-Nov-08 23:30N 29°35' W 090°36'0 0.0
2017-Nov-08 23:00N 29°35' W 090°36'1 2.6
2017-Nov-08 22:30N 29°34' W 090°35'3 5.1
2017-Nov-08 22:00N 29°34' W 090°32'4 0.9
2017-Nov-08 17:39N 29°33' W 090°27'1 5.5
2017-Nov-08 17:29N 29°33' W 090°28'3 5.5
2017-Nov-08 17:00N 29°34' W 090°31'3 5.3
2017-Nov-08 16:30N 29°34' W 090°34'3 5.3
2017-Nov-08 16:00N 29°35' W 090°37'2 4.8
2017-Nov-08 15:30N 29°36' W 090°40'2 4.7
2017-Nov-08 15:00N 29°36' W 090°43'2 4.8
2017-Nov-08 14:30N 29°34' W 090°43'0 0.0
2017-Nov-08 14:00N 29°34' W 090°43'1 2.4
2017-Nov-08 13:30N 29°33' W 090°42'0 0.0
2017-Nov-07 02:55N 29°33' W 090°42'1 2.5
2017-Nov-07 02:30N 29°34' W 090°43'2 4.2
2017-Nov-07 02:00N 29°33' W 090°45'2 4.9
2017-Nov-07 01:30N 29°32' W 090°48'4 5.6
2017-Nov-07 00:42N 29°32' W 090°53'1 5.7
2017-Nov-07 00:28N 29°33' W 090°54'  

Dump ship's entire track history